Puerto del Rosario, Spain
Current Conditions -  °F | °C
As of 6:00 AM on Thursday 23 Oct 2014 (Local Time) from GCFV Reporting Station
Clear Clear  
Wind Chill: 70°   Ceiling: Unl
Heat Index: 70°   Visibility: 6mi
Dew Point: 54°   Wind: 6mph
Humidity: 56%   Direction: 330°NNW
Pressure: 30.03"   Gusts: NA
Location:  28.5°N, 13.86°W
Report Text: GCFV 230500Z 33005KT CAVOK 21/12 Q1017
Loading
Personal Weather Stations






























Interactive Weather Map New forecast layout! Learn more

10-Day Weather Forecast

Advertisements
Track Severe Weather on mobile